Time;durP1;ratioP1;P1;durP2;ratioP2;P2;SDS_P1;SDS_P2;PMS_P1;PMS_P2;Temp;Humidity;BMP_temperature;BMP_pressure;BME280_temperature;BME280_humidity;BME280_pressure;Samples;Min_cycle;Max_cycle;Signal;HPM_P1;HPM_P2
2023/03/27 00:02:21;;;;;;;5.45;1.50;;;;;;;4.77;68.96;101400.38;5125327;27;20117;-86
2023/03/27 00:04:47;;;;;;;8.50;1.50;;;;;;;4.71;68.15;101404.75;5125994;27;20062;-86
2023/03/27 00:07:12;;;;;;;5.40;1.20;;;;;;;4.79;68.36;101409.06;5117889;27;20084;-86
2023/03/27 00:09:38;;;;;;;6.30;1.35;;;;;;;4.84;68.28;101420.38;5120493;27;20418;-86
2023/03/27 00:12:04;;;;;;;2.47;1.05;;;;;;;4.87;69.14;101427.38;5116595;27;20117;-86
2023/03/27 00:14:29;;;;;;;5.10;1.77;;;;;;;4.84;68.73;101422.13;5126954;27;20102;-86
2023/03/27 00:16:56;;;;;;;7.63;1.42;;;;;;;4.83;68.14;101431.75;5121469;27;20569;-86
2023/03/27 00:19:21;;;;;;;5.38;1.98;;;;;;;4.80;69.39;101430.91;5116741;27;20493;-86
2023/03/27 00:21:47;;;;;;;7.55;1.60;;;;;;;4.74;69.33;101436.19;5136117;27;20017;-86
2023/03/27 00:24:12;;;;;;;3.85;1.08;;;;;;;4.66;69.53;101438.84;5117564;27;20101;-86
2023/03/27 00:26:39;;;;;;;7.13;1.48;;;;;;;4.61;69.76;101449.34;5130342;27;20573;-86
2023/03/27 00:29:06;;;;;;;6.15;1.63;;;;;;;4.58;69.80;101453.75;5121972;27;20031;-86
2023/03/27 00:31:31;;;;;;;6.55;1.23;;;;;;;4.54;70.21;101460.75;5127781;27;20061;-86
2023/03/27 00:33:57;;;;;;;4.00;1.17;;;;;;;4.44;70.56;101451.22;5121947;27;20348;-86
2023/03/27 00:36:22;;;;;;;5.40;1.30;;;;;;;4.45;70.80;101467.78;5124680;27;20023;-86
2023/03/27 00:38:48;;;;;;;9.23;1.65;;;;;;;4.37;70.74;101465.19;5125382;27;20031;-86
2023/03/27 00:41:13;;;;;;;5.28;1.33;;;;;;;4.36;71.66;101460.84;5126946;27;20408;-86
2023/03/27 00:43:42;;;;;;;6.22;1.33;;;;;;;4.37;70.82;101467.81;5116159;27;20027;-86
2023/03/27 00:46:13;;;;;;;8.02;1.67;;;;;;;4.38;71.91;101469.53;5126176;27;20054;-86
2023/03/27 00:48:39;;;;;;;3.00;1.17;;;;;;;4.35;71.37;101467.81;5124463;27;20038;-86
2023/03/27 00:51:05;;;;;;;5.25;1.77;;;;;;;4.34;71.62;101467.84;5134879;27;20027;-86
2023/03/27 00:53:31;;;;;;;10.27;1.80;;;;;;;4.35;71.91;101466.97;5122679;27;20062;-86
2023/03/27 00:56:00;;;;;;;3.70;1.35;;;;;;;4.42;71.75;101473.88;5120969;27;20055;-86
2023/03/27 00:58:27;;;;;;;5.88;1.50;;;;;;;4.48;71.41;101484.34;5130560;27;20031;-86
2023/03/27 01:00:55;;;;;;;6.28;1.38;;;;;;;4.54;71.25;101492.16;5119142;27;20031;-86
2023/03/27 01:03:23;;;;;;;7.95;2.10;;;;;;;4.54;71.94;101486.94;5125438;27;20039;-87
2023/03/27 01:05:49;;;;;;;5.45;1.52;;;;;;;4.58;72.38;101488.66;5132575;27;20038;-86
2023/03/27 01:08:15;;;;;;;6.25;1.45;;;;;;;4.63;71.48;101498.25;5133382;27;20027;-86
2023/03/27 01:11:10;;;;;;;3.88;1.15;;;;;;;4.68;71.64;101497.34;5136085;27;20074;-86
2023/03/27 01:13:38;;;;;;;4.43;1.10;;;;;;;4.75;72.34;101512.13;5105739;27;20490;-86
2023/03/27 01:16:07;;;;;;;5.30;1.35;;;;;;;4.81;72.44;101514.72;5139445;27;20385;-86
2023/03/27 01:18:58;;;;;;;7.50;2.20;;;;;;;4.83;72.55;101514.72;5129603;27;20045;-85
2023/03/27 01:21:48;;;;;;;2.17;1.00;;;;;;;4.86;72.30;101510.34;5124458;27;20051;-86
2023/03/27 01:24:28;;;;;;;9.43;1.52;;;;;;;4.91;72.18;101530.41;5128768;27;20137;-85
2023/03/27 01:27:00;;;;;;;4.80;1.15;;;;;;;4.90;72.78;101512.94;5116016;27;20054;-85
2023/03/27 01:29:54;;;;;;;6.22;1.58;;;;;;;4.93;73.02;101512.91;5115727;27;20035;-85
2023/03/27 01:32:48;;;;;;;5.90;1.67;;;;;;;4.92;74.03;101501.56;5129815;27;20385;-86
2023/03/27 01:35:56;;;;;;;6.90;1.40;;;;;;;4.91;74.16;101514.69;5135049;27;20101;-86
2023/03/27 01:38:28;;;;;;;3.45;0.93;;;;;;;4.98;74.50;101525.09;5129449;27;20428;-86
2023/03/27 01:40:59;;;;;;;3.17;1.45;;;;;;;4.85;74.72;101520.84;5127279;27;20059;-86
2023/03/27 01:43:33;;;;;;;7.80;1.77;;;;;;;4.85;75.21;101539.16;5120840;27;20031;-86
2023/03/27 01:46:17;;;;;;;6.18;1.25;;;;;;;4.80;74.67;101536.56;5119621;27;20497;-86
2023/03/27 01:48:48;;;;;;;3.33;1.60;;;;;;;4.79;75.19;101534.81;5111537;27;20035;-86
2023/03/27 01:51:23;;;;;;;5.75;1.55;;;;;;;4.74;75.03;101539.19;5131608;27;20427;-86
2023/03/27 01:53:55;;;;;;;4.97;1.27;;;;;;;4.71;75.44;101546.19;5132723;27;20042;-87
2023/03/27 01:56:26;;;;;;;7.05;1.30;;;;;;;4.68;75.86;101546.22;5129910;27;20498;-86
2023/03/27 01:59:03;;;;;;;8.98;2.15;;;;;;;4.58;75.59;101543.66;5124775;27;20076;-86
2023/03/27 02:01:35;;;;;;;6.78;1.42;;;;;;;4.63;76.14;101548.88;5124705;27;20118;-86
2023/03/27 02:04:03;;;;;;;5.63;1.63;;;;;;;4.58;75.99;101543.66;5133550;27;20127;-85
2023/03/27 02:06:33;;;;;;;4.95;1.50;;;;;;;4.61;75.90;101554.09;5120394;27;20037;-86
2023/03/27 02:09:14;;;;;;;5.68;1.60;;;;;;;4.70;76.13;101553.19;5124020;27;20027;-86
2023/03/27 02:11:45;;;;;;;6.97;1.58;;;;;;;4.52;76.08;101550.66;5110092;27;20044;-86
2023/03/27 02:14:25;;;;;;;2.78;1.33;;;;;;;4.51;76.04;101568.09;5118821;27;20379;-86
2023/03/27 02:16:57;;;;;;;3.28;1.40;;;;;;;4.43;76.51;101563.78;5126664;27;20037;-86
2023/03/27 02:19:27;;;;;;;;;;;;;;;4.54;74.84;101580.34;5141962;27;20439;-86
2023/03/27 02:21:52;;;;;;;5.45;1.50;;;;;;;4.36;76.10;101576.03;5131271;27;19915;-86
2023/03/27 02:24:18;;;;;;;5.28;1.67;;;;;;;4.36;76.19;101583.88;5131069;27;20424;-86
2023/03/27 02:26:44;;;;;;;5.30;1.80;;;;;;;4.22;76.29;101581.28;5129602;27;20061;-86
2023/03/27 02:29:40;;;;;;;5.50;1.75;;;;;;;4.31;75.93;101589.13;5128172;27;20450;-86
2023/03/27 02:32:23;;;;;;;8.05;1.95;;;;;;;4.19;75.86;101586.50;5122089;27;20023;-86
2023/03/27 02:35:33;;;;;;;9.05;2.38;;;;;;;4.19;75.76;101590.88;5119866;27;20069;-86
2023/03/27 02:38:20;;;;;;;4.47;1.42;;;;;;;4.07;76.47;101600.50;5047118;28;20119;-85
2023/03/27 02:41:07;;;;;;;6.20;1.70;;;;;;;4.07;76.73;101602.25;5041483;28;20111;-86
2023/03/27 02:43:39;;;;;;;4.00;1.70;;;;;;;3.99;76.67;101597.03;5115945;27;20041;-86
2023/03/27 02:46:13;;;;;;;3.10;1.40;;;;;;;3.90;76.54;101591.78;5128497;27;20026;-86
2023/03/27 02:48:48;;;;;;;7.78;1.92;;;;;;;3.86;76.96;101599.63;5122659;27;20453;-86
2023/03/27 02:51:29;;;;;;;9.55;2.22;;;;;;;3.75;77.64;101610.97;5129108;27;20059;-86
2023/03/27 02:54:08;;;;;;;4.13;1.95;;;;;;;3.68;77.69;101605.75;5129232;27;20378;-86
2023/03/27 02:56:39;;;;;;;4.97;1.92;;;;;;;3.62;77.68;101616.19;5114337;27;20073;-86
2023/03/27 02:59:09;;;;;;;4.60;1.80;;;;;;;3.56;77.82;101607.50;5124171;27;20030;-86
2023/03/27 03:01:37;;;;;;;6.20;1.73;;;;;;;3.57;78.03;101610.97;5116423;27;20096;-86
2023/03/27 03:04:27;;;;;;;5.30;1.67;;;;;;;3.51;77.77;101601.38;5114238;27;20031;-86
2023/03/27 03:06:53;;;;;;;8.40;1.80;;;;;;;3.57;77.94;101614.44;5121434;27;20482;-85
2023/03/27 03:09:19;;;;;;;7.15;2.00;;;;;;;3.58;78.14;101612.72;5123562;27;20023;-86
2023/03/27 03:11:48;;;;;;;2.90;1.55;;;;;;;3.64;78.37;101628.41;5125644;27;20070;-85
2023/03/27 03:14:13;;;;;;;8.77;2.08;;;;;;;3.66;78.39;101626.66;5117206;27;20481;-86
2023/03/27 03:16:39;;;;;;;2.45;1.67;;;;;;;3.71;78.32;101632.78;5121631;27;20318;-85
2023/03/27 03:19:04;;;;;;;6.72;2.40;;;;;;;3.75;78.36;101641.50;5117437;27;20027;-86
2023/03/27 03:21:30;;;;;;;6.97;1.58;;;;;;;3.75;77.88;101647.59;5120328;27;20584;-85
2023/03/27 03:23:56;;;;;;;5.90;1.65;;;;;;;3.76;78.20;101643.22;5119289;27;20088;-86
2023/03/27 03:26:22;;;;;;;8.40;2.53;;;;;;;3.77;78.00;101644.97;5122826;27;20031;-86
2023/03/27 03:28:47;;;;;;;8.82;1.80;;;;;;;3.68;78.05;101637.13;5127569;27;20027;-85
2023/03/27 03:31:13;;;;;;;3.78;1.90;;;;;;;3.63;77.80;101650.19;5125325;27;20030;-85
2023/03/27 03:33:38;;;;;;;5.75;1.60;;;;;;;3.67;77.61;101661.53;5112435;27;20020;-85
2023/03/27 03:36:04;;;;;;;5.38;1.52;;;;;;;3.63;77.62;101667.63;5120325;27;20027;-86
2023/03/27 03:38:30;;;;;;;7.28;1.83;;;;;;;3.58;77.80;101667.63;5124543;27;20509;-85
2023/03/27 03:40:57;;;;;;;9.35;1.90;;;;;;;3.51;77.81;101665.88;5121179;27;20030;-86
2023/03/27 03:43:25;;;;;;;3.70;1.65;;;;;;;3.43;77.97;101663.22;5116602;28;20027;-85
2023/03/27 03:45:51;;;;;;;8.00;2.00;;;;;;;3.43;78.31;101673.69;5121407;27;20553;-86
2023/03/27 03:48:17;;;;;;;6.05;1.98;;;;;;;3.42;78.05;101679.78;5125200;27;20019;-86
2023/03/27 03:50:44;;;;;;;7.75;2.03;;;;;;;3.47;78.08;101685.91;5116950;27;20475;-86
2023/03/27 03:53:10;;;;;;;5.47;2.22;;;;;;;3.50;78.32;101688.53;5124737;27;20083;-86
2023/03/27 03:55:36;;;;;;;4.50;1.75;;;;;;;3.49;78.31;101684.16;5116859;27;20510;-86
2023/03/27 03:58:01;;;;;;;6.18;1.80;;;;;;;3.55;77.88;101693.78;5143951;27;20074;-86
2023/03/27 04:00:27;;;;;;;7.15;1.70;;;;;;;3.55;77.81;101693.78;5120701;27;20041;-86
2023/03/27 04:02:53;;;;;;;5.25;1.88;;;;;;;3.62;78.05;101707.72;5127490;27;20776;-85
2023/03/27 04:05:19;;;;;;;7.50;1.92;;;;;;;3.57;78.12;101698.13;5113022;27;20547;-86
2023/03/27 04:07:45;;;;;;;3.78;1.55;;;;;;;3.58;77.79;101699.84;5122021;27;20219;-85
2023/03/27 04:10:12;;;;;;;7.53;1.50;;;;;;;3.59;77.96;101703.38;5133802;27;20067;-86
2023/03/27 04:12:38;;;;;;;9.13;4.38;;;;;;;3.62;77.40;101713.81;5110224;28;20046;-86
2023/03/27 04:15:04;;;;;;;5.38;1.67;;;;;;;3.61;77.71;101714.69;5107998;28;20019;-86
2023/03/27 04:17:32;;;;;;;8.48;1.98;;;;;;;3.56;77.64;101704.22;5127144;27;20027;-86
2023/03/27 04:19:57;;;;;;;6.22;2.13;;;;;;;3.56;77.63;101711.19;5126664;27;20470;-85
2023/03/27 04:22:23;;;;;;;3.95;1.98;;;;;;;3.54;77.69;101719.03;5115159;27;20152;-85
2023/03/27 04:24:49;;;;;;;4.80;1.92;;;;;;;3.58;77.81;101730.34;5138479;27;20046;-86
2023/03/27 04:27:16;;;;;;;4.47;1.80;;;;;;;3.62;77.79;101734.72;5133507;27;20058;-86
2023/03/27 04:29:46;;;;;;;5.55;1.60;;;;;;;3.66;77.47;101739.09;5121615;28;20031;-86
2023/03/27 04:32:12;;;;;;;8.05;2.10;;;;;;;3.63;77.54;101738.22;5121372;27;20034;-85
2023/03/27 04:34:39;;;;;;;4.40;2.08;;;;;;;3.61;77.03;101734.75;5126650;27;20035;-86
2023/03/27 04:37:04;;;;;;;3.53;1.48;;;;;;;3.62;76.75;101747.81;5119025;28;20031;-85
2023/03/27 04:39:33;;;;;;;6.78;1.75;;;;;;;3.58;77.12;101754.75;5124828;28;20370;-86
2023/03/27 04:41:58;;;;;;;5.60;1.60;;;;;;;3.57;77.06;101758.25;5118480;28;20492;-86
2023/03/27 04:44:23;;;;;;;5.82;2.22;;;;;;;3.50;76.99;101764.34;5117016;27;20051;-86
2023/03/27 04:46:49;;;;;;;9.60;1.80;;;;;;;3.49;77.21;101772.16;5121623;27;20031;-86
2023/03/27 04:49:17;;;;;;;5.07;2.00;;;;;;;3.43;77.53;101770.41;5116165;27;20353;-85
2023/03/27 04:51:45;;;;;;;10.68;2.25;;;;;;;3.40;77.51;101766.88;5136121;27;20023;-86
2023/03/27 04:54:11;;;;;;;4.93;2.03;;;;;;;3.48;77.81;101773.91;5124999;27;20541;-86
2023/03/27 04:56:36;;;;;;;4.10;1.98;;;;;;;3.47;77.71;101771.28;5116335;27;20019;-85
2023/03/27 04:59:03;;;;;;;6.47;1.55;;;;;;;3.51;77.57;101779.16;5116501;27;20023;-86
2023/03/27 05:01:29;;;;;;;2.75;1.42;;;;;;;3.49;77.94;101782.63;5120451;27;20042;-86
2023/03/27 05:03:55;;;;;;;4.80;1.75;;;;;;;3.42;77.65;101779.13;5117473;27;20082;-86
2023/03/27 05:06:21;;;;;;;4.65;1.60;;;;;;;3.48;77.43;101778.25;5123017;27;20042;-86
2023/03/27 05:08:46;;;;;;;8.05;1.83;;;;;;;3.52;77.58;101790.47;5125017;27;20031;-86
2023/03/27 05:11:12;;;;;;;7.90;1.75;;;;;;;3.50;77.66;101790.47;5128177;27;20520;-86
2023/03/27 05:13:37;;;;;;;5.97;1.88;;;;;;;3.54;77.83;101799.19;5124126;27;20039;-86
2023/03/27 05:16:03;;;;;;;2.92;1.75;;;;;;;3.57;77.69;101809.66;5122834;27;20398;-86
2023/03/27 05:18:29;;;;;;;6.88;2.72;;;;;;;3.60;77.45;101807.09;5114594;27;20027;-85
2023/03/27 05:20:56;;;;;;;6.63;1.67;;;;;;;3.62;77.60;101810.56;5129703;27;20077;-86
2023/03/27 05:23:21;;;;;;;6.38;1.40;;;;;;;3.68;77.32;101822.78;5133272;27;20039;-86
2023/03/27 05:25:46;;;;;;;12.10;2.20;;;;;;;3.64;77.53;101821.00;5120002;27;20027;-85
2023/03/27 05:28:12;;;;;;;6.90;1.80;;;;;;;3.62;77.59;101823.63;5127703;27;20019;-85
2023/03/27 05:30:37;;;;;;;4.95;1.70;;;;;;;3.62;77.52;101830.59;5115542;27;20027;-86
2023/03/27 05:33:02;;;;;;;3.17;1.58;;;;;;;3.58;77.81;101829.72;5130721;27;20099;-85
2023/03/27 05:35:28;;;;;;;8.13;1.80;;;;;;;3.56;77.86;101827.09;5129121;27;20220;-85
2023/03/27 05:37:54;;;;;;;4.68;1.60;;;;;;;3.57;78.11;101833.19;5116683;27;20462;-85
2023/03/27 05:40:23;;;;;;;3.42;1.85;;;;;;;3.64;79.26;101834.09;5130364;27;20051;-85
2023/03/27 05:42:50;;;;;;;5.00;2.00;;;;;;;3.60;78.10;101827.13;5132475;27;20027;-86
2023/03/27 05:45:16;;;;;;;5.82;1.70;;;;;;;3.67;78.19;101845.44;5126558;27;20023;-85
2023/03/27 05:47:46;;;;;;;3.03;1.88;;;;;;;3.68;78.20;101843.69;5137395;27;20037;-85
2023/03/27 05:50:11;;;;;;;3.67;2.17;;;;;;;3.73;77.87;101836.75;5131146;27;20039;-85
2023/03/27 05:52:37;;;;;;;9.70;2.22;;;;;;;3.78;78.09;101848.13;5126092;27;20403;-86
2023/03/27 05:55:03;;;;;;;6.60;2.42;;;;;;;3.84;78.32;101849.00;5123419;27;20023;-86
2023/03/27 05:57:28;;;;;;;6.22;1.92;;;;;;;3.90;78.17;101850.75;5135950;27;20037;-86
2023/03/27 05:59:54;;;;;;;10.35;2.05;;;;;;;3.94;78.14;101851.66;5122970;27;20118;-86
2023/03/27 06:02:20;;;;;;;9.95;2.33;;;;;;;3.98;78.05;101858.66;5123989;27;20108;-86
2023/03/27 06:04:46;;;;;;;9.02;1.98;;;;;;;3.95;77.60;101862.13;5126389;27;20374;-86
2023/03/27 06:07:13;;;;;;;3.92;1.77;;;;;;;4.07;77.67;101877.88;5131897;27;20038;-85
2023/03/27 06:09:39;;;;;;;9.48;2.25;;;;;;;4.19;77.44;101882.25;5131346;27;20030;-85
2023/03/27 06:12:04;;;;;;;4.15;1.90;;;;;;;4.32;77.31;101893.63;5122982;27;20156;-85
2023/03/27 06:14:29;;;;;;;8.75;2.00;;;;;;;4.30;76.70;101898.88;5139859;27;20023;-85
2023/03/27 06:16:55;;;;;;;8.65;1.20;;;;;;;4.25;76.26;101903.22;5128776;27;20031;-85
2023/03/27 06:19:23;;;;;;;6.45;1.35;;;;;;;4.14;75.81;101898.81;5121554;27;20114;-86
2023/03/27 06:21:48;;;;;;;6.03;1.60;;;;;;;4.11;76.32;101894.47;5116497;27;20038;-85
2023/03/27 06:24:13;;;;;;;3.38;1.80;;;;;;;4.11;76.13;101884.00;5124592;27;20031;-86
2023/03/27 06:26:40;;;;;;;4.47;1.70;;;;;;;4.11;76.62;101889.22;5114977;27;20075;-86
2023/03/27 06:29:05;;;;;;;5.78;1.55;;;;;;;4.14;76.78;101899.69;5124158;27;20075;-85
2023/03/27 06:31:30;;;;;;;3.30;1.17;;;;;;;4.14;76.78;101898.81;5125869;27;20030;-86
2023/03/27 06:33:56;;;;;;;2.47;1.35;;;;;;;4.14;76.76;101904.91;5131741;27;20470;-86
2023/03/27 06:36:23;;;;;;;3.60;1.40;;;;;;;4.19;76.85;101912.78;5116256;27;20451;-86
2023/03/27 06:38:49;;;;;;;1.95;1.10;;;;;;;4.14;76.94;101907.53;5117910;27;20051;-86
2023/03/27 06:41:14;;;;;;;4.70;1.48;;;;;;;4.12;76.97;101911.03;5121994;27;20382;-86
2023/03/27 06:43:39;;;;;;;1.92;1.20;;;;;;;4.08;76.92;101913.63;5111682;27;20027;-86
2023/03/27 06:46:05;;;;;;;2.22;1.33;;;;;;;3.98;77.37;101909.22;5119714;27;20061;-86
2023/03/27 06:48:31;;;;;;;2.90;1.58;;;;;;;4.00;77.50;101920.56;5127947;27;20115;-86
2023/03/27 06:50:56;;;;;;;3.60;1.77;;;;;;;3.99;77.27;101929.28;5120615;27;20526;-86
2023/03/27 06:53:22;;;;;;;4.07;1.33;;;;;;;4.02;77.68;101931.94;5132125;27;20489;-86
2023/03/27 06:55:49;;;;;;;4.22;1.65;;;;;;;4.03;77.87;101945.88;5138983;27;20026;-86
2023/03/27 06:58:17;;;;;;;4.45;1.98;;;;;;;4.06;77.68;101943.28;5124870;27;20019;-86
2023/03/27 07:00:44;;;;;;;6.95;1.75;;;;;;;4.07;77.49;101945.91;5121729;27;20462;-86
2023/03/27 07:03:10;;;;;;;5.28;2.00;;;;;;;4.07;77.59;101943.28;5124159;27;20058;-86
2023/03/27 07:05:39;;;;;;;5.13;2.08;;;;;;;4.04;77.92;101939.78;5128596;27;20031;-86
2023/03/27 07:08:10;;;;;;;5.20;2.30;;;;;;;4.18;77.38;101950.31;5113575;27;20035;-86
2023/03/27 07:10:37;;;;;;;5.25;2.05;;;;;;;4.16;76.92;101952.94;5142055;27;20077;-86
2023/03/27 07:13:02;;;;;;;5.00;2.05;;;;;;;4.22;76.04;101960.78;5110501;27;20443;-86
2023/03/27 07:15:27;;;;;;;10.80;2.08;;;;;;;4.24;76.81;101963.41;5127031;27;20043;-86
2023/03/27 07:18:00;;;;;;;5.53;2.05;;;;;;;4.33;76.14;101964.31;5110532;27;20076;-86
2023/03/27 07:20:28;;;;;;;4.30;1.90;;;;;;;4.42;75.87;101966.09;5123632;27;20035;-86
2023/03/27 07:22:56;;;;;;;5.85;2.15;;;;;;;4.44;74.96;101963.50;5140623;27;20083;-86
2023/03/27 07:25:22;;;;;;;2.95;1.52;;;;;;;4.54;75.28;101973.13;5129487;27;20537;-86
2023/03/27 07:27:48;;;;;;;3.35;2.13;;;;;;;4.65;75.10;101975.75;5129242;27;20493;-86
2023/03/27 07:30:13;;;;;;;5.03;1.90;;;;;;;4.78;76.06;101973.19;5125432;27;20031;-86
2023/03/27 07:32:41;;;;;;;4.20;1.88;;;;;;;4.93;74.52;101972.31;5128014;27;20418;-86
2023/03/27 07:35:07;;;;;;;3.40;1.70;;;;;;;5.04;73.25;101975.84;5118114;27;20075;-86
2023/03/27 07:37:34;;;;;;;6.68;1.50;;;;;;;5.18;72.17;101982.84;5125633;27;20113;-86
2023/03/27 07:40:00;;;;;;;2.83;1.52;;;;;;;5.20;72.57;101981.97;5123093;27;20072;-86
2023/03/27 07:42:26;;;;;;;4.45;1.67;;;;;;;5.21;71.66;101982.81;5130479;27;20065;-86
2023/03/27 07:44:51;;;;;;;5.28;1.85;;;;;;;5.19;71.22;101972.34;5132162;27;20023;-86
2023/03/27 07:47:16;;;;;;;3.33;1.50;;;;;;;5.23;71.79;101981.97;5125618;27;20024;-86
2023/03/27 07:49:42;;;;;;;5.25;1.98;;;;;;;5.29;71.53;101984.59;5121792;28;20035;-87
2023/03/27 07:52:08;;;;;;;4.13;2.05;;;;;;;5.38;71.80;101986.34;5115572;27;20154;-87
2023/03/27 07:54:33;;;;;;;7.00;2.42;;;;;;;5.47;71.21;101978.47;5127198;27;20027;-87
2023/03/27 07:56:58;;;;;;;7.88;2.10;;;;;;;5.60;71.01;101985.44;5127362;27;20050;-87
2023/03/27 07:59:24;;;;;;;7.40;2.22;;;;;;;5.86;70.26;101998.50;5120015;27;20375;-87
2023/03/27 08:01:49;;;;;;;6.57;1.70;;;;;;;6.06;70.50;101989.72;5116044;27;20026;-88
2023/03/27 08:04:16;;;;;;;3.10;1.63;;;;;;;6.32;67.83;101987.03;5117622;28;20055;-87
2023/03/27 08:06:41;;;;;;;5.15;1.80;;;;;;;6.57;66.37;101995.66;5125185;27;20519;-87
2023/03/27 08:09:07;;;;;;;6.85;1.40;;;;;;;6.75;65.11;101995.56;5139177;27;20054;-87
2023/03/27 08:11:33;;;;;;;2.22;1.30;;;;;;;7.03;64.86;101992.75;5136261;27;20044;-87
2023/03/27 08:13:58;;;;;;;3.58;1.20;;;;;;;7.26;65.35;102001.34;5125208;27;20513;-87
2023/03/27 08:16:27;;;;;;;2.45;0.85;;;;;;;7.45;64.22;102007.31;5113796;28;20030;-87
2023/03/27 08:18:53;;;;;;;4.95;1.35;;;;;;;7.67;61.97;102010.66;5122193;27;20370;-87
2023/03/27 08:21:19;;;;;;;4.43;1.08;;;;;;;7.95;61.72;102005.13;5127721;27;20028;-88
2023/03/27 08:23:44;;;;;;;4.75;1.00;;;;;;;8.15;59.74;102006.63;5145161;27;20432;-87
2023/03/27 08:26:10;;;;;;;5.35;1.38;;;;;;;8.34;60.77;102009.91;5125680;27;20024;-86
2023/03/27 08:28:36;;;;;;;7.50;1.20;;;;;;;8.57;57.55;102009.66;5121460;27;20027;-87
2023/03/27 08:31:08;;;;;;;6.07;1.02;;;;;;;8.74;57.93;102013.84;5131999;27;20031;-87
2023/03/27 08:33:35;;;;;;;3.00;0.90;;;;;;;9.10;56.78;102025.63;5130494;27;20072;-87
2023/03/27 08:36:01;;;;;;;2.38;0.80;;;;;;;9.22;55.40;102024.56;5134253;27;20381;-86
2023/03/27 08:38:31;;;;;;;3.13;0.82;;;;;;;9.26;55.66;102021.84;5131619;27;20465;-87
2023/03/27 08:40:58;;;;;;;3.95;0.88;;;;;;;9.29;54.97;102034.16;5139782;27;20306;-87
2023/03/27 08:43:27;;;;;;;3.60;0.90;;;;;;;9.19;53.71;102026.38;5125181;27;20019;-87
2023/03/27 08:46:02;;;;;;;3.53;0.90;;;;;;;9.34;54.67;102034.94;5119340;27;20057;-87
2023/03/27 08:48:41;;;;;;;2.45;1.05;;;;;;;9.72;55.73;102034.28;5130877;27;20034;-87
2023/03/27 08:51:30;;;;;;;7.95;1.45;;;;;;;10.10;54.05;102030.06;5138416;27;20026;-87
2023/03/27 08:54:03;;;;;;;1.80;0.68;;;;;;;10.38;52.96;102035.72;5133937;27;20031;-87
2023/03/27 08:56:28;;;;;;;3.65;0.68;;;;;;;10.46;51.46;102034.69;5128389;27;20028;-86
2023/03/27 08:58:54;;;;;;;8.00;1.30;;;;;;;10.71;50.82;102037.66;5130699;27;20027;-87
2023/03/27 09:01:32;;;;;;;2.47;0.70;;;;;;;10.73;50.32;102043.81;5131855;27;20398;-87
2023/03/27 09:04:44;;;;;;;2.10;0.68;;;;;;;10.89;52.20;102046.97;5125853;27;20058;-86
2023/03/27 09:07:18;;;;;;;3.80;1.20;;;;;;;11.05;51.46;102052.81;5116972;27;20043;-87
2023/03/27 09:09:58;;;;;;;3.45;0.75;;;;;;;11.31;50.62;102052.19;5131322;27;20086;-87
2023/03/27 09:12:44;;;;;;;3.75;1.13;;;;;;;11.07;50.38;102061.56;5117331;27;20024;-87
2023/03/27 09:15:15;;;;;;;1.75;0.82;;;;;;;11.23;50.03;102065.59;5126920;27;20377;-86
2023/03/27 09:17:47;;;;;;;4.25;1.27;;;;;;;10.88;49.75;102049.66;5120428;27;20034;-87
2023/03/27 09:20:31;;;;;;;;;;;;;;;10.86;51.50;102065.56;5130567;27;20059;-87
2023/03/27 09:23:07;;;;;;;4.85;1.27;;;;;;;11.54;48.71;102059.59;5132395;27;19926;-86
2023/03/27 09:25:42;;;;;;;4.07;1.15;;;;;;;12.10;45.79;102064.38;5120910;27;20027;-86
2023/03/27 09:28:19;;;;;;;1.95;0.95;;;;;;;12.72;46.25;102067.88;5130408;27;20038;-86
2023/03/27 09:30:45;;;;;;;0.77;0.60;;;;;;;11.92;46.92;102081.63;5125722;27;20030;-86
2023/03/27 09:33:11;;;;;;;1.52;0.50;;;;;;;10.36;52.29;102093.94;5118134;27;20023;-86
2023/03/27 09:35:37;;;;;;;0.93;0.60;;;;;;;9.13;56.78;102113.50;5124338;27;20015;-86
2023/03/27 09:38:23;;;;;;;0.45;0.40;;;;;;;8.53;57.35;102118.66;5123071;27;20074;-86
2023/03/27 09:41:03;;;;;;;1.42;1.15;;;;;;;7.81;59.44;102113.19;5126088;27;20031;-85
2023/03/27 09:43:38;;;;;;;1.20;0.55;;;;;;;7.50;60.70;102099.38;5130052;27;20027;-86
2023/03/27 09:46:05;;;;;;;1.23;0.43;;;;;;;7.43;64.06;102116.13;5119091;27;20035;-85
2023/03/27 09:48:38;;;;;;;2.42;0.52;;;;;;;7.65;61.60;102113.31;5119364;27;20150;-86
2023/03/27 09:51:04;;;;;;;1.83;0.50;;;;;;;8.43;60.99;102102.06;5121705;27;20438;-86
2023/03/27 09:53:31;;;;;;;0.70;0.38;;;;;;;9.82;56.51;102108.97;5131285;27;20066;-86
2023/03/27 09:55:59;;;;;;;1.20;0.57;;;;;;;10.28;56.37;102122.28;5119385;27;20114;-86
2023/03/27 09:58:34;;;;;;;0.85;0.52;;;;;;;10.82;55.65;102115.91;5119337;27;20027;-86
2023/03/27 10:01:18;;;;;;;3.80;0.90;;;;;;;11.10;53.72;102117.09;5118120;27;20103;-86
2023/03/27 10:03:52;;;;;;;2.47;0.65;;;;;;;10.76;55.60;102130.16;5118298;27;20027;-85
2023/03/27 10:06:48;;;;;;;1.90;0.60;;;;;;;11.31;54.54;102125.47;5114758;27;20066;-86
2023/03/27 10:09:22;;;;;;;2.42;0.57;;;;;;;13.81;48.73;102122.09;5124032;27;20122;-87
2023/03/27 10:11:50;;;;;;;1.73;0.70;;;;;;;15.72;44.15;102121.25;5117185;27;20028;-86
2023/03/27 10:14:18;;;;;;;1.45;0.57;;;;;;;16.90;41.27;102117.91;5122383;27;20038;-86
2023/03/27 10:16:46;;;;;;;2.50;0.90;;;;;;;17.31;38.59;102107.94;5127067;27;20030;-86
2023/03/27 10:19:35;;;;;;;1.33;0.60;;;;;;;18.45;38.99;102114.66;5115259;27;20123;-86
2023/03/27 10:22:11;;;;;;;4.47;1.08;;;;;;;19.13;37.47;102103.00;5120366;27;20627;-87
2023/03/27 10:24:38;;;;;;;3.17;0.80;;;;;;;19.54;33.98;102114.06;5109667;27;20023;-87
2023/03/27 10:27:06;;;;;;;1.88;0.68;;;;;;;19.17;36.58;102113.47;5126178;27;20027;-87
2023/03/27 10:29:34;;;;;;;2.95;0.73;;;;;;;18.12;35.75;102108.41;5121684;27;20034;-87
2023/03/27 10:32:02;;;;;;;0.95;0.60;;;;;;;16.50;37.96;102111.66;5118962;27;20034;-87
2023/03/27 10:34:32;;;;;;;1.38;0.60;;;;;;;14.89;41.46;102133.38;5124575;27;20027;-86
2023/03/27 10:37:00;;;;;;;2.15;0.70;;;;;;;13.59;44.01;102125.44;5121904;27;20034;-86
2023/03/27 10:39:28;;;;;;;4.22;0.85;;;;;;;12.54;46.87;102116.16;5118944;27;20545;-85
2023/03/27 10:41:55;;;;;;;3.10;0.90;;;;;;;11.74;48.38;102120.88;5124438;27;20030;-85
2023/03/27 10:44:24;;;;;;;3.90;1.08;;;;;;;11.10;48.90;102110.94;5118299;27;20027;-85
2023/03/27 10:46:51;;;;;;;1.75;0.77;;;;;;;12.81;47.48;102118.97;5119732;27;20486;-86
2023/03/27 10:49:40;;;;;;;3.60;1.10;;;;;;;14.98;43.69;102119.72;5137238;27;20015;-85
2023/03/27 10:52:22;;;;;;;2.90;0.95;;;;;;;16.81;40.62;102117.38;5123112;27;20031;-86
2023/03/27 10:55:19;;;;;;;2.97;1.00;;;;;;;17.72;37.35;102142.47;5123429;27;20054;-85
2023/03/27 10:57:52;;;;;;;2.38;1.23;;;;;;;14.62;41.32;102154.75;5115408;27;20044;-85
2023/03/27 11:00:39;;;;;;;3.08;0.70;;;;;;;11.62;47.35;102174.16;5121187;27;20134;-85
2023/03/27 11:03:22;;;;;;;1.73;0.60;;;;;;;10.13;51.58;102167.44;5124769;27;20332;-85
2023/03/27 11:05:52;;;;;;;;;;;;;;;9.48;54.27;102187.81;5115243;27;20034;-85
2023/03/27 11:08:26;;;;;;;3.00;0.57;;;;;;;8.45;58.72;102188.16;5131132;27;19956;-85
2023/03/27 11:10:56;;;;;;;4.82;0.82;;;;;;;7.95;60.61;102186.81;5128336;27;20135;-85
2023/03/27 11:13:30;;;;;;;4.72;1.55;;;;;;;7.86;62.30;102198.28;5115682;27;20035;-85
2023/03/27 11:16:10;;;;;;;4.93;2.20;;;;;;;7.77;61.66;102203.59;5119311;27;20040;-86
2023/03/27 11:18:39;;;;;;;1.88;0.90;;;;;;;7.76;63.01;102208.00;5118344;27;20451;-85
2023/03/27 11:21:14;;;;;;;1.85;0.80;;;;;;;7.80;64.24;102199.19;5142494;27;20031;-85
2023/03/27 11:23:53;;;;;;;1.67;0.88;;;;;;;8.16;62.72;102200.69;5123949;27;20522;-85
2023/03/27 11:26:24;;;;;;;3.70;0.80;;;;;;;9.03;60.39;102198.06;5116571;27;20550;-86
2023/03/27 11:29:12;;;;;;;1.85;1.15;;;;;;;9.71;58.80;102183.94;5127554;27;20496;-86
2023/03/27 11:31:44;;;;;;;5.85;1.90;;;;;;;10.47;54.91;102194.19;5117821;27;21760;-85
2023/03/27 11:34:28;;;;;;;;;;;;;;;11.59;54.32;102190.13;5124846;27;20029;-86
2023/03/27 11:37:00;;;;;;;1.10;0.60;;;;;;;12.57;49.94;102186.84;5124230;27;19947;-86
2023/03/27 11:39:35;;;;;;;0.95;0.70;;;;;;;13.38;50.57;102187.22;5118147;27;20034;-85
2023/03/27 11:42:13;;;;;;;2.95;0.57;;;;;;;13.96;47.91;102180.94;5113792;27;20561;-88
2023/03/27 11:44:38;;;;;;;6.63;1.10;;;;;;;14.32;46.90;102187.75;5118082;27;20023;-87
2023/03/27 11:47:34;;;;;;;3.55;0.95;;;;;;;14.46;47.03;102180.16;5116909;27;20031;-87